Time;durP1;ratioP1;P1;durP2;ratioP2;P2;SDS_P1;SDS_P2;PMS_P1;PMS_P2;Temp;Humidity;BMP_temperature;BMP_pressure;BME280_temperature;BME280_humidity;BME280_pressure;Samples;Min_cycle;Max_cycle;Signal;HPM_P1;HPM_P2
2022/06/12 00:01:20;;;;;;;;;;;;;;;18.82;48.97;99679.17;1759093;81;20224;-80
2022/06/12 00:04:25;;;;;;;;;;;;;;;18.78;49.29;99668.28;1756161;81;20242;-80
2022/06/12 00:07:29;;;;;;;;;;;;;;;18.74;49.66;99673.17;1730407;83;20226;-81
2022/06/12 00:10:35;;;;;;;;;;;;;;;18.71;49.98;99675.03;1729909;83;20226;-80
2022/06/12 00:13:45;;;;;;;;;;;;;;;18.70;50.31;99671.97;1729029;83;20243;-80
2022/06/12 00:16:52;;;;;;;;;;;;;;;18.70;50.57;99671.97;1730551;83;20238;-80
2022/06/12 00:19:57;;;;;;;;;;;;;;;18.69;50.78;99670.30;1730730;83;20636;-80
2022/06/12 00:23:01;;;;;;;;;;;;;;;18.68;50.96;99668.04;1730441;83;20242;-80
2022/06/12 00:26:06;;;;;;;;;;;;;;;18.67;51.10;99659.95;1730325;83;20242;-80
2022/06/12 00:29:15;;;;;;;;;;;;;;;18.66;51.26;99659.11;1728879;83;20234;-80
2022/06/12 00:32:21;;;;;;;;;;;;;;;18.67;51.38;99659.95;1730351;83;20218;-80
2022/06/12 00:35:28;;;;;;;;;;;;;;;18.65;51.53;99649.97;1727788;83;20230;-80
2022/06/12 00:38:32;;;;;;;;;;;;;;;18.65;51.62;99653.28;1713139;84;20228;-80
2022/06/12 00:41:38;;;;;;;;;;;;;;;18.65;51.70;99660.20;1711805;84;20236;-80
2022/06/12 00:44:46;;;;;;;;;;;;;;;18.62;51.75;99649.06;1713118;84;20722;-81
2022/06/12 00:47:51;;;;;;;;;;;;;;;18.60;51.83;99644.88;1712121;84;20212;-80
2022/06/12 00:51:21;;;;;;;;;;;;;;;18.59;51.91;99644.58;1718214;83;20276;-81
2022/06/12 00:54:26;;;;;;;;;;;;;;;18.57;52.02;99635.11;1720390;83;20241;-81
2022/06/12 00:57:25;;;;;;;;;;;;;;;18.58;51.91;99637.33;1720729;83;20236;-80
2022/06/12 01:00:29;;;;;;;;;;;;;;;18.60;51.93;99640.17;1720360;83;20298;-80
2022/06/12 01:06:33;;;;;;;;;;;;;;;18.55;51.79;99645.61;1719814;83;20242;-80
2022/06/12 01:06:41;;;;;;;;;;;;;;;18.52;51.73;99648.02;1720596;83;20241;-80
2022/06/12 01:09:50;;;;;;;;;;;;;;;18.51;51.76;99645.79;1720652;83;20232;-80
2022/06/12 01:12:57;;;;;;;;;;;;;;;18.53;51.75;99644.15;1721634;83;20194;-80
2022/06/12 01:15:59;;;;;;;;;;;;;;;18.57;51.75;99641.20;1719139;83;20631;-80
2022/06/12 01:19:03;;;;;;;;;;;;;;;18.60;51.79;99641.55;1719985;83;20241;-80
2022/06/12 01:22:33;;;;;;;;;;;;;;;18.64;51.76;99641.91;1712006;84;20191;-80
2022/06/12 01:26:03;;;;;;;;;;;;;;;18.64;51.79;99641.37;1712962;84;20719;-80
2022/06/12 01:29:25;;;;;;;;;;;;;;;18.61;51.76;99644.62;1713326;84;20291;-80
2022/06/12 01:32:38;;;;;;;;;;;;;;;18.62;51.67;99643.52;1711665;84;20223;-80
2022/06/12 01:35:50;;;;;;;;;;;;;;;18.62;51.69;99638.53;1711528;83;20251;-80
2022/06/12 01:39:02;;;;;;;;;;;;;;;18.60;51.80;99644.88;1714050;84;20513;-80
2022/06/12 01:42:31;;;;;;;;;;;;;;;18.56;51.55;99641.74;1714172;84;20199;-80
2022/06/12 01:45:40;;;;;;;;;;;;;;;18.57;51.51;99639.81;1713414;84;20219;-80
2022/06/12 01:49:08;;;;;;;;;;;;;;;18.56;51.44;99644.52;1714241;84;20593;-80
2022/06/12 01:52:22;;;;;;;;;;;;;;;18.57;51.40;99642.03;1712914;84;20491;-80
2022/06/12 01:55:31;;;;;;;;;;;;;;;18.61;51.27;99643.23;1713927;84;20621;-80
2022/06/12 01:58:45;;;;;;;;;;;;;;;18.67;51.08;99646.94;1714202;84;20219;-80
2022/06/12 02:02:05;;;;;;;;;;;;;;;18.74;51.11;99649.63;1712161;84;20236;-80
2022/06/12 02:05:19;;;;;;;;;;;;;;;18.81;51.02;99651.69;1715116;83;20221;-79
2022/06/12 02:08:30;;;;;;;;;;;;;;;18.91;50.79;99651.89;1720541;83;20225;-80
2022/06/12 02:14:48;;;;;;;;;;;;;;;19.25;50.03;99639.53;1720860;83;20202;-80
2022/06/12 02:17:55;;;;;;;;;;;;;;;19.47;49.60;99643.23;1720930;83;20690;-80
2022/06/12 02:21:19;;;;;;;;;;;;;;;19.63;49.08;99635.52;1720573;83;20237;-80
2022/06/12 02:24:26;;;;;;;;;;;;;;;19.80;48.68;99632.72;1720538;83;20237;-80
2022/06/12 02:27:44;;;;;;;;;;;;;;;20.05;48.08;99636.45;1720977;83;20245;-80
2022/06/12 02:30:52;;;;;;;;;;;;;;;20.31;47.37;99639.04;1720680;83;20387;-80
2022/06/12 02:34:00;;;;;;;;;;;;;;;20.62;46.72;99639.49;1720855;83;20662;-81
2022/06/12 02:37:08;;;;;;;;;;;;;;;20.93;46.19;99646.24;1721438;82;20698;-81
2022/06/12 02:40:17;;;;;;;;;;;;;;;21.18;45.58;99647.93;1719678;83;20241;-81
2022/06/12 02:43:23;;;;;;;;;;;;;;;21.44;44.88;99639.30;1719240;83;20257;-81
2022/06/12 02:46:34;;;;;;;;;;;;;;;21.71;44.23;99647.34;1719066;83;20992;-81
2022/06/12 02:49:40;;;;;;;;;;;;;;;21.96;44.04;99651.70;1718977;83;20241;-81
2022/06/12 02:52:53;;;;;;;;;;;;;;;22.20;43.19;99643.83;1719718;83;20221;-81
2022/06/12 02:56:24;;;;;;;;;;;;;;;22.44;42.17;99649.28;1719275;83;20229;-81
2022/06/12 02:59:32;;;;;;;;;;;;;;;22.67;41.50;99647.98;1720458;83;20233;-81
2022/06/12 03:03:04;;;;;;;;;;;;;;;22.92;40.82;99650.08;1719550;83;20221;-81
2022/06/12 03:06:09;;;;;;;;;;;;;;;22.99;40.67;99655.39;1740128;82;20591;-81
2022/06/12 03:09:14;;;;;;;;;;;;;;;22.95;40.31;99648.68;1742249;82;20229;-80
2022/06/12 03:12:20;;;;;;;;;;;;;;;22.91;40.15;99648.41;1741929;82;20662;-80
2022/06/12 03:15:39;;;;;;;;;;;;;;;23.00;39.97;99647.86;1740786;82;20220;-80
2022/06/12 03:18:48;;;;;;;;;;;;;;;23.14;39.65;99651.24;1740675;82;20241;-80
2022/06/12 03:22:17;;;;;;;;;;;;;;;23.25;39.60;99640.97;1742062;82;20253;-80
2022/06/12 03:25:27;;;;;;;;;;;;;;;23.42;39.44;99637.91;1741558;82;20229;-81
2022/06/12 03:28:47;;;;;;;;;;;;;;;23.63;39.07;99630.41;1742457;82;20261;-80
2022/06/12 03:32:07;;;;;;;;;;;;;;;23.86;38.58;99628.48;1742399;82;20229;-80
2022/06/12 03:35:17;;;;;;;;;;;;;;;24.12;38.46;99641.84;1731768;82;20265;-80
2022/06/12 03:38:20;;;;;;;;;;;;;;;24.34;37.87;99646.28;1721056;82;20253;-80
2022/06/12 03:41:48;;;;;;;;;;;;;;;24.35;36.92;99651.58;1712981;83;20227;-80
2022/06/12 03:45:00;;;;;;;;;;;;;;;24.35;37.92;99645.98;1745502;82;20224;-80
2022/06/12 03:48:29;;;;;;;;;;;;;;;24.35;37.83;99639.00;1742412;82;20221;-80
2022/06/12 03:51:52;;;;;;;;;;;;;;;24.30;38.21;99640.41;1729000;83;20190;-80
2022/06/12 03:55:15;;;;;;;;;;;;;;;24.37;38.26;99624.23;1728804;83;20224;-81
2022/06/12 03:58:22;;;;;;;;;;;;;;;24.53;38.46;99634.80;1756965;81;20231;-80
2022/06/12 04:01:29;;;;;;;;;;;;;;;24.65;38.69;99634.45;1729238;83;20254;-80
2022/06/12 04:04:33;;;;;;;;;;;;;;;24.79;39.02;99639.70;1733939;82;20233;-80
2022/06/12 04:07:38;;;;;;;;;;;;;;;24.89;39.18;99636.89;1720406;83;20220;-80
2022/06/12 04:10:45;;;;;;;;;;;;;;;24.93;39.81;99637.13;1720212;83;20249;-80
2022/06/12 04:13:50;;;;;;;;;;;;;;;24.93;39.99;99637.13;1721424;83;20248;-80
2022/06/12 04:16:56;;;;;;;;;;;;;;;24.89;40.72;99643.02;1720184;83;20249;-80
2022/06/12 04:20:06;;;;;;;;;;;;;;;24.73;41.47;99637.50;1721680;83;20212;-80
2022/06/12 04:23:13;;;;;;;;;;;;;;;24.62;42.40;99640.08;1721341;83;20217;-80
2022/06/12 04:26:21;;;;;;;;;;;;;;;24.45;43.06;99631.17;1723051;83;20241;-80
2022/06/12 04:29:32;;;;;;;;;;;;;;;24.37;43.83;99634.55;1721797;83;20245;-80
2022/06/12 04:32:36;;;;;;;;;;;;;;;24.48;44.45;99636.21;1721926;83;20230;-80
2022/06/12 04:35:40;;;;;;;;;;;;;;;24.58;44.72;99625.55;1721878;83;20241;-80
2022/06/12 04:38:47;;;;;;;;;;;;;;;24.60;45.20;99624.69;1722019;83;20264;-80
2022/06/12 04:41:53;;;;;;;;;;;;;;;24.58;45.83;99628.34;1697947;84;20222;-80
2022/06/12 04:44:59;;;;;;;;;;;;;;;24.59;46.20;99623.02;1710599;84;20625;-80
2022/06/12 04:48:03;;;;;;;;;;;;;;;24.66;46.64;99624.41;1713353;84;20621;-79
2022/06/12 04:51:10;;;;;;;;;;;;;;;24.80;46.58;99623.80;1739455;82;20750;-82
2022/06/12 04:54:15;;;;;;;;;;;;;;;24.92;46.84;99625.11;1711049;84;20662;-81
2022/06/12 04:57:20;;;;;;;;;;;;;;;25.09;46.89;99614.16;1694324;84;20210;-81
2022/06/12 05:00:25;;;;;;;;;;;;;;;25.18;46.93;99617.45;1695771;84;20593;-81
2022/06/12 05:03:30;;;;;;;;;;;;;;;25.12;46.94;99617.75;1694855;84;20260;-81
2022/06/12 05:06:36;;;;;;;;;;;;;;;24.95;47.65;99618.11;1695699;84;20212;-81
2022/06/12 05:09:43;;;;;;;;;;;;;;;24.86;47.90;99619.84;1692580;84;20307;-81
2022/06/12 05:12:46;;;;;;;;;;;;;;;24.94;48.02;99613.09;1683433;85;20245;-81
2022/06/12 05:15:52;;;;;;;;;;;;;;;25.23;47.54;99614.62;1681285;85;20286;-81
2022/06/12 05:18:58;;;;;;;;;;;;;;;25.59;47.50;99607.34;1682923;85;20323;-81
2022/06/12 05:22:03;;;;;;;;;;;;;;;25.91;46.38;99600.38;1683337;85;20229;-81
2022/06/12 05:25:07;;;;;;;;;;;;;;;26.25;46.11;99609.56;1681771;84;20218;-81
2022/06/12 05:28:13;;;;;;;;;;;;;;;26.48;45.22;99609.31;1683264;85;20234;-81
2022/06/12 05:31:18;;;;;;;;;;;;;;;26.55;44.60;99607.56;1683208;85;20217;-81
2022/06/12 05:34:23;;;;;;;;;;;;;;;26.53;44.67;99606.18;1682701;85;20210;-81
2022/06/12 05:37:28;;;;;;;;;;;;;;;26.59;44.99;99603.03;1683501;85;20226;-80
2022/06/12 05:40:36;;;;;;;;;;;;;;;26.71;44.88;99599.78;1688449;82;20752;-80
2022/06/12 05:43:40;;;;;;;;;;;;;;;26.84;44.86;99599.05;1699439;84;21108;-81
2022/06/12 05:46:37;;;;;;;;;;;;;;;26.98;44.68;99602.78;1699628;84;20224;-80
2022/06/12 05:49:31;;;;;;;;;;;;;;;27.16;43.56;99604.55;1701405;84;20204;-80
2022/06/12 05:52:16;;;;;;;;;;;;;;;27.31;43.76;99600.67;1701122;84;20220;-80
2022/06/12 05:55:21;;;;;;;;;;;;;;;27.46;43.28;99595.63;1705350;84;20205;-81
2022/06/12 05:58:26;;;;;;;;;;;;;;;27.62;42.80;99599.05;1713290;84;20198;-80
2022/06/12 06:01:30;;;;;;;;;;;;;;;27.76;42.30;99597.72;1712965;84;20206;-81
2022/06/12 06:04:36;;;;;;;;;;;;;;;27.91;42.66;99595.21;1712702;84;20548;-81
2022/06/12 06:07:41;;;;;;;;;;;;;;;28.03;42.17;99588.50;1711757;84;20375;-81
2022/06/12 06:10:46;;;;;;;;;;;;;;;28.16;42.25;99588.27;1727939;82;20221;-81
2022/06/12 06:13:49;;;;;;;;;;;;;;;28.35;41.53;99586.81;1698297;82;20208;-81
2022/06/12 06:16:53;;;;;;;;;;;;;;;28.51;40.63;99582.53;1692574;84;20215;-81
2022/06/12 06:19:58;;;;;;;;;;;;;;;28.64;39.85;99578.88;1701103;84;20558;-81
2022/06/12 06:23:02;;;;;;;;;;;;;;;28.75;39.95;99583.16;1694583;84;20239;-81
2022/06/12 06:26:06;;;;;;;;;;;;;;;28.81;40.18;99581.64;1705976;82;20657;-81
2022/06/12 06:29:12;;;;;;;;;;;;;;;28.95;39.22;99567.00;1709902;84;21124;-80
2022/06/12 06:32:17;;;;;;;;;;;;;;;29.07;39.21;99572.89;1709880;84;20613;-81
2022/06/12 06:35:21;;;;;;;;;;;;;;;29.23;38.63;99578.44;1709149;84;20263;-81
2022/06/12 06:38:26;;;;;;;;;;;;;;;29.35;37.89;99584.07;1710023;84;20257;-80
2022/06/12 06:41:25;;;;;;;;;;;;;;;29.40;37.52;99579.72;1694455;83;20228;-81
2022/06/12 06:47:51;;;;;;;;;;;;;;;29.50;37.97;99578.05;1711382;84;20721;-80
2022/06/12 06:50:56;;;;;;;;;;;;;;;29.66;37.91;99587.01;1711795;84;20228;-81
2022/06/12 06:54:01;;;;;;;;;;;;;;;29.77;36.91;99582.18;1711737;84;20689;-80
2022/06/12 06:57:05;;;;;;;;;;;;;;;29.87;36.73;99576.02;1694052;84;20691;-80
2022/06/12 07:00:11;;;;;;;;;;;;;;;29.90;36.77;99580.45;1693982;84;20263;-80
2022/06/12 07:03:16;;;;;;;;;;;;;;;29.97;36.43;99579.42;1693392;84;20272;-80
2022/06/12 07:06:22;;;;;;;;;;;;;;;30.05;36.29;99582.02;1692645;84;20686;-80
2022/06/12 07:09:27;;;;;;;;;;;;;;;30.12;35.81;99579.59;1693875;84;20330;-80
2022/06/12 07:12:32;;;;;;;;;;;;;;;30.24;36.30;99582.64;1693929;84;20416;-80
2022/06/12 07:15:31;;;;;;;;;;;;;;;30.24;35.40;99574.19;1692582;84;20221;-80
2022/06/12 07:18:29;;;;;;;;;;;;;;;30.26;35.91;99577.53;1692663;84;20224;-80
2022/06/12 07:21:21;;;;;;;;;;;;;;;30.31;35.90;99575.72;1693947;84;20232;-80
2022/06/12 07:24:25;;;;;;;;;;;;;;;30.35;35.36;99574.75;1692524;84;20240;-80
2022/06/12 07:27:29;;;;;;;;;;;;;;;30.31;35.12;99575.14;1694250;84;20244;-80
2022/06/12 07:30:36;;;;;;;;;;;;;;;30.29;36.44;99571.22;1692317;85;20244;-80
2022/06/12 07:33:41;;;;;;;;;;;;;;;30.36;36.03;99564.30;1693212;84;20240;-80
2022/06/12 07:36:47;;;;;;;;;;;;;;;30.38;36.14;99564.78;1692232;85;20263;-80
2022/06/12 07:39:52;;;;;;;;;;;;;;;30.54;35.33;99573.08;1693521;84;20248;-80
2022/06/12 07:42:58;;;;;;;;;;;;;;;30.68;35.18;99572.95;1707679;83;20238;-80
2022/06/12 07:46:01;;;;;;;;;;;;;;;30.80;35.56;99568.34;1723492;83;20222;-80
2022/06/12 07:49:05;;;;;;;;;;;;;;;30.86;35.33;99561.13;1723361;83;20958;-80
2022/06/12 07:52:12;;;;;;;;;;;;;;;30.91;34.66;99567.47;1724269;83;20258;-80
2022/06/12 07:55:21;;;;;;;;;;;;;;;31.03;32.99;99565.40;1725332;83;20584;-80
2022/06/12 07:58:27;;;;;;;;;;;;;;;31.16;33.51;99575.72;1715123;83;20660;-80
2022/06/12 08:01:33;;;;;;;;;;;;;;;31.21;32.31;99574.13;1701748;83;20216;-80
2022/06/12 08:04:38;;;;;;;;;;;;;;;31.25;32.90;99576.55;1704788;83;20220;-80
2022/06/12 08:07:42;;;;;;;;;;;;;;;31.25;31.77;99569.48;1676243;83;20254;-80
2022/06/12 08:10:47;;;;;;;;;;;;;;;31.17;31.68;99563.83;1700530;84;20629;-80
2022/06/12 08:13:52;;;;;;;;;;;;;;;31.17;29.60;99568.89;1685265;85;20461;-80
2022/06/12 08:16:58;;;;;;;;;;;;;;;31.17;28.44;99561.83;1679052;85;20245;-80
2022/06/12 08:23:37;;;;;;;;;;;;;;;31.21;28.42;99562.84;1681485;85;20226;-80
2022/06/12 08:26:39;;;;;;;;;;;;;;;31.31;28.43;99565.94;1705752;84;20232;-80
2022/06/12 08:29:49;;;;;;;;;;;;;;;31.37;28.27;99565.19;1709267;84;20692;-80
2022/06/12 08:32:55;;;;;;;;;;;;;;;31.44;28.82;99561.30;1709289;84;20510;-80
2022/06/12 08:36:00;;;;;;;;;;;;;;;31.46;28.45;99550.47;1707370;84;20231;-80
2022/06/12 08:39:06;;;;;;;;;;;;;;;31.42;28.62;99546.65;1708910;84;20337;-80
2022/06/12 08:42:28;;;;;;;;;;;;;;;31.46;29.18;99540.58;1676444;85;20205;-80
2022/06/12 08:45:37;;;;;;;;;;;;;;;31.54;28.63;99546.81;1713044;84;20236;-80
2022/06/12 08:48:45;;;;;;;;;;;;;;;31.53;28.91;99541.75;1718496;83;20609;-80
2022/06/12 08:52:26;;;;;;;;;;;;;;;31.57;28.28;99541.89;1718388;83;20597;-79
2022/06/12 08:55:45;;;;;;;;;;;;;;;31.55;28.19;99532.34;1722973;82;20627;-80
2022/06/12 08:58:56;;;;;;;;;;;;;;;31.63;29.13;99536.92;1748272;82;20225;-80
2022/06/12 09:01:55;;;;;;;;;;;;;;;31.66;28.29;99537.05;1717118;83;21039;-80
2022/06/12 09:05:00;;;;;;;;;;;;;;;31.66;27.66;99524.92;1712437;84;20229;-80
2022/06/12 09:08:30;;;;;;;;;;;;;;;31.69;28.89;99534.16;1712835;84;20226;-80
2022/06/12 09:11:38;;;;;;;;;;;;;;;31.64;29.29;99525.85;1711200;82;20267;-80
2022/06/12 09:15:18;;;;;;;;;;;;;;;31.52;29.74;99525.11;1718522;83;20234;-80
2022/06/12 09:18:49;;;;;;;;;;;;;;;31.57;30.12;99529.17;1711147;84;20263;-80
2022/06/12 09:21:58;;;;;;;;;;;;;;;31.56;30.02;99519.86;1716996;83;20235;-80
2022/06/12 09:25:06;;;;;;;;;;;;;;;31.64;29.93;99519.61;1711299;83;20228;-80
2022/06/12 09:28:19;;;;;;;;;;;;;;;31.78;29.21;99513.77;1727705;83;20230;-80
2022/06/12 09:31:26;;;;;;;;;;;;;;;31.89;28.86;99509.42;1728154;83;20219;-80
2022/06/12 09:34:44;;;;;;;;;;;;;;;31.95;29.08;99512.92;1729025;83;20255;-80
2022/06/12 09:38:19;;;;;;;;;;;;;;;31.97;29.52;99501.50;1728086;83;20640;-80
2022/06/12 09:41:49;;;;;;;;;;;;;;;32.00;29.26;99493.77;1728440;83;20201;-80
2022/06/12 09:45:05;;;;;;;;;;;;;;;31.98;29.38;99483.94;1724472;83;20205;-80
2022/06/12 09:48:22;;;;;;;;;;;;;;;32.06;28.67;99491.57;1719207;83;20261;-80
2022/06/12 09:51:27;;;;;;;;;;;;;;;32.09;28.07;99495.15;1721053;83;20667;-80
2022/06/12 09:54:59;;;;;;;;;;;;;;;32.03;28.57;99483.75;1720496;83;20241;-80
2022/06/12 09:58:20;;;;;;;;;;;;;;;32.01;28.85;99486.11;1719325;83;20275;-80
2022/06/12 10:01:33;;;;;;;;;;;;;;;31.97;28.41;99474.63;1719857;83;20181;-80
2022/06/12 10:04:49;;;;;;;;;;;;;;;32.08;28.26;99468.01;1719237;83;20225;-80
2022/06/12 10:08:13;;;;;;;;;;;;;;;32.12;27.33;99467.58;1721153;83;20221;-80
2022/06/12 10:11:31;;;;;;;;;;;;;;;32.11;27.15;99468.75;1720582;83;20242;-80
2022/06/12 10:14:49;;;;;;;;;;;;;;;32.08;27.32;99465.18;1720599;83;20225;-80
2022/06/12 10:17:57;;;;;;;;;;;;;;;32.15;27.55;99452.77;1718508;83;20296;-80
2022/06/12 10:20:59;;;;;;;;;;;;;;;32.20;27.01;99462.47;1718364;83;20237;-79
2022/06/12 10:24:06;;;;;;;;;;;;;;;32.20;27.11;99455.98;1718067;83;20316;-79
2022/06/12 10:27:14;;;;;;;;;;;;;;;32.25;26.78;99455.78;1719249;83;20670;-80
2022/06/12 10:30:42;;;;;;;;;;;;;;;32.25;27.06;99446.71;1720191;83;20229;-79
2022/06/12 10:34:02;;;;;;;;;;;;;;;32.28;26.68;99453.70;1720043;83;20297;-79
2022/06/12 10:37:34;;;;;;;;;;;;;;;32.24;26.94;99443.64;1720051;83;20268;-80
2022/06/12 10:40:38;;;;;;;;;;;;;;;32.19;27.17;99449.50;1720351;83;20233;-79
2022/06/12 10:43:53;;;;;;;;;;;;;;;32.16;27.22;99443.69;1720548;83;20758;-80
2022/06/12 10:46:57;;;;;;;;;;;;;;;32.14;26.74;99432.73;1721457;82;20280;-79
2022/06/12 10:50:21;;;;;;;;;;;;;;;32.05;27.17;99444.08;1721877;83;20662;-79
2022/06/12 10:53:28;;;;;;;;;;;;;;;31.99;26.90;99430.45;1721135;83;20217;-80
2022/06/12 10:56:43;;;;;;;;;;;;;;;32.01;27.07;99431.78;1719750;83;20217;-79
2022/06/12 11:00:12;;;;;;;;;;;;;;;32.10;26.85;99413.36;1721692;83;20381;-79
2022/06/12 11:03:36;;;;;;;;;;;;;;;32.22;26.70;99408.37;1722023;83;20217;-80
2022/06/12 11:06:52;;;;;;;;;;;;;;;32.37;27.06;99399.89;1721738;83;20217;-79
2022/06/12 11:10:23;;;;;;;;;;;;;;;32.48;26.44;99401.16;1721889;82;20349;-80
2022/06/12 11:13:58;;;;;;;;;;;;;;;32.42;26.48;99394.03;1721732;83;20227;-80
2022/06/12 11:17:13;;;;;;;;;;;;;;;32.40;26.96;99392.14;1720838;83;20219;-80
2022/06/12 11:20:09;;;;;;;;;;;;;;;32.39;26.51;99383.41;1722005;83;20203;-80
2022/06/12 11:23:24;;;;;;;;;;;;;;;32.27;26.99;99383.53;1722976;83;20593;-80
2022/06/12 11:27:06;;;;;;;;;;;;;;;32.31;26.59;99393.58;1722677;83;20629;-80
2022/06/12 11:30:21;;;;;;;;;;;;;;;32.30;26.75;99381.44;1722405;83;20223;-80
2022/06/12 11:33:39;;;;;;;;;;;;;;;32.31;26.54;99373.19;1720701;83;20199;-80
2022/06/12 11:36:56;;;;;;;;;;;;;;;32.38;26.48;99363.38;1669132;83;20219;-80
2022/06/12 11:40:22;;;;;;;;;;;;;;;32.42;26.68;99354.41;1721842;83;20235;-80
2022/06/12 11:43:35;;;;;;;;;;;;;;;32.50;26.46;99352.11;1722034;83;20214;-80
2022/06/12 11:46:44;;;;;;;;;;;;;;;32.49;26.44;99349.86;1719104;83;20224;-80
2022/06/12 11:50:14;;;;;;;;;;;;;;;32.44;26.87;99344.41;1720448;83;20675;-80
2022/06/12 11:53:45;;;;;;;;;;;;;;;32.46;26.59;99342.64;1720621;83;20243;-80
2022/06/12 11:57:10;;;;;;;;;;;;;;;32.31;26.67;99349.14;1751011;82;20200;-80
2022/06/12 12:00:21;;;;;;;;;;;;;;;32.23;26.62;99352.02;1684083;85;20251;-80
2022/06/12 12:03:34;;;;;;;;;;;;;;;32.23;26.68;99354.30;1683958;85;20255;-80
2022/06/12 12:07:06;;;;;;;;;;;;;;;32.30;26.89;99357.98;1751358;82;20276;-80
2022/06/12 12:10:30;;;;;;;;;;;;;;;32.36;26.23;99364.25;1742751;82;20225;-80
2022/06/12 12:13:42;;;;;;;;;;;;;;;32.46;26.61;99353.97;1721461;83;20718;-80
2022/06/12 12:16:58;;;;;;;;;;;;;;;32.53;26.46;99342.34;1721780;83;20209;-80
2022/06/12 12:20:34;;;;;;;;;;;;;;;32.62;26.18;99335.20;1720310;83;20431;-80
2022/06/12 12:23:42;;;;;;;;;;;;;;;32.75;26.43;99335.49;1720818;83;20241;-80
2022/06/12 12:26:47;;;;;;;;;;;;;;;32.78;25.97;99336.20;1721936;83;20225;-80
2022/06/12 12:29:46;;;;;;;;;;;;;;;32.76;25.63;99328.65;1720398;83;20205;-80
2022/06/12 12:32:39;;;;;;;;;;;;;;;32.68;26.68;99329.55;1721851;83;20213;-80
2022/06/12 12:42:33;;;;;;;;;;;;;;;32.78;25.90;99307.87;1722259;83;20623;-80
2022/06/12 12:45:40;;;;;;;;;;;;;;;32.91;25.99;99312.21;1721900;83;20225;-80
2022/06/12 12:48:50;;;;;;;;;;;;;;;33.04;25.81;99318.16;1721221;81;20205;-80
2022/06/12 12:51:55;;;;;;;;;;;;;;;33.18;25.48;99322.91;1723002;83;20218;-80
2022/06/12 12:55:05;;;;;;;;;;;;;;;33.26;25.22;99320.53;1722676;83;20229;-80
2022/06/12 12:58:25;;;;;;;;;;;;;;;33.33;25.46;99322.22;1722117;83;20225;-80
2022/06/12 13:01:32;;;;;;;;;;;;;;;33.33;25.36;99319.98;1721996;83;20213;-80
2022/06/12 13:04:38;;;;;;;;;;;;;;;33.30;25.22;99322.91;1722089;83;20737;-80
2022/06/12 13:08:09;;;;;;;;;;;;;;;33.27;25.65;99329.30;1720629;83;20627;-80
2022/06/12 13:11:24;;;;;;;;;;;;;;;33.11;25.55;99339.64;1721934;83;20229;-80
2022/06/12 13:14:43;;;;;;;;;;;;;;;32.71;30.60;99355.77;1720519;83;20631;-80
2022/06/12 13:18:03;;;;;;;;;;;;;;;32.03;32.12;99350.84;1721912;83;20460;-80
2022/06/12 13:21:13;;;;;;;;;;;;;;;31.26;33.50;99352.22;1722032;83;20224;-80
2022/06/12 13:24:30;;;;;;;;;;;;;;;30.63;34.88;99352.41;1721052;83;20209;-80
2022/06/12 13:27:38;;;;;;;;;;;;;;;30.06;35.75;99352.48;1721970;83;20650;-80
2022/06/12 13:30:47;;;;;;;;;;;;;;;29.63;37.16;99347.56;1720583;83;20245;-80
2022/06/12 13:34:03;;;;;;;;;;;;;;;29.33;37.61;99352.64;1722212;83;20229;-79
2022/06/12 13:37:08;;;;;;;;;;;;;;;29.03;38.80;99347.52;1722201;83;20209;-80
2022/06/12 13:40:32;;;;;;;;;;;;;;;28.75;40.41;99345.39;1707744;83;20222;-79
2022/06/12 13:43:47;;;;;;;;;;;;;;;28.49;41.60;99340.97;1726270;83;20258;-79
2022/06/12 13:46:55;;;;;;;;;;;;;;;28.26;42.07;99340.07;1726988;83;20545;-79
2022/06/12 13:50:10;;;;;;;;;;;;;;;28.09;42.31;99342.73;1719992;83;20222;-80
2022/06/12 13:53:24;;;;;;;;;;;;;;;27.96;43.15;99350.05;1720637;83;20632;-79
2022/06/12 13:56:17;;;;;;;;;;;;;;;27.88;43.72;99352.75;1711000;83;20203;-79
2022/06/12 13:59:28;;;;;;;;;;;;;;;27.76;44.10;99351.32;1708319;84;20674;-79
2022/06/12 14:02:37;;;;;;;;;;;;;;;27.68;44.21;99365.23;1708170;84;20629;-79
2022/06/12 14:05:43;;;;;;;;;;;;;;;27.56;44.09;99371.92;1707767;84;20239;-79
2022/06/12 14:08:48;;;;;;;;;;;;;;;27.38;44.76;99382.92;1689327;84;20195;-79
2022/06/12 14:11:53;;;;;;;;;;;;;;;27.24;45.63;99390.49;1707947;84;20211;-79
2022/06/12 14:14:59;;;;;;;;;;;;;;;27.08;46.28;99391.35;1708198;84;20247;-79
2022/06/12 14:18:05;;;;;;;;;;;;;;;26.96;46.24;99397.43;1706417;84;20243;-79
2022/06/12 14:21:28;;;;;;;;;;;;;;;26.82;45.97;99403.56;1706725;84;20219;-79
2022/06/12 14:24:35;;;;;;;;;;;;;;;26.72;46.17;99412.98;1706959;84;20243;-79
2022/06/12 14:27:44;;;;;;;;;;;;;;;26.65;46.31;99432.14;1738273;82;20714;-79
2022/06/12 14:30:52;;;;;;;;;;;;;;;26.62;46.23;99449.57;1737073;82;20249;-80
2022/06/12 14:34:12;;;;;;;;;;;;;;;26.50;47.81;99461.83;1738146;82;20635;-79
2022/06/12 14:37:42;;;;;;;;;;;;;;;26.27;49.29;99476.69;1737590;82;20249;-79
2022/06/12 14:40:45;;;;;;;;;;;;;;;26.04;49.64;99489.02;1713934;83;20238;-79
2022/06/12 14:43:50;;;;;;;;;;;;;;;25.85;49.75;99499.32;1737258;82;20244;-79
2022/06/12 14:46:54;;;;;;;;;;;;;;;25.74;50.24;99513.41;1737387;82;20650;-79
2022/06/12 14:49:59;;;;;;;;;;;;;;;25.57;50.15;99499.01;1706235;82;20271;-79
2022/06/12 14:53:04;;;;;;;;;;;;;;;25.34;50.62;99512.38;1722097;83;20542;-79
2022/06/12 14:56:22;;;;;;;;;;;;;;;25.15;50.39;99500.50;1671231;85;20215;-79
2022/06/12 14:59:29;;;;;;;;;;;;;;;25.05;49.87;99507.55;1692544;85;20291;-79
2022/06/12 15:02:35;;;;;;;;;;;;;;;24.93;48.36;99492.52;1693279;85;20213;-79
2022/06/12 15:05:40;;;;;;;;;;;;;;;24.73;48.17;99486.50;1692826;85;20248;-79
2022/06/12 15:08:44;;;;;;;;;;;;;;;24.58;48.02;99489.97;1692683;85;20229;-79
2022/06/12 15:11:51;;;;;;;;;;;;;;;24.43;47.44;99470.77;1715483;83;20274;-79
2022/06/12 15:14:55;;;;;;;;;;;;;;;24.33;47.63;99488.13;1717455;83;20645;-79
2022/06/12 15:18:00;;;;;;;;;;;;;;;24.20;47.86;99480.63;1716368;83;20883;-79
2022/06/12 15:21:05;;;;;;;;;;;;;;;24.05;48.08;99475.67;1716123;83;20629;-79
2022/06/12 15:24:11;;;;;;;;;;;;;;;23.86;49.01;99481.04;1716966;83;20271;-79
2022/06/12 15:30:41;;;;;;;;;;;;;;;23.54;52.77;99468.80;1716652;83;20234;-79
2022/06/12 15:33:46;;;;;;;;;;;;;;;23.40;53.02;99457.38;1717310;83;20234;-79
2022/06/12 15:36:44;;;;;;;;;;;;;;;23.30;53.16;99463.81;1717433;83;20254;-79
2022/06/12 15:39:47;;;;;;;;;;;;;;;23.26;53.53;99454.89;1717796;83;20247;-79
2022/06/12 15:42:51;;;;;;;;;;;;;;;23.24;53.47;99448.73;1721520;83;20609;-79
2022/06/12 15:45:56;;;;;;;;;;;;;;;23.23;53.78;99442.88;1721680;83;20292;-79
2022/06/12 15:49:00;;;;;;;;;;;;;;;23.19;53.53;99446.22;1721853;83;20227;-79
2022/06/12 15:52:06;;;;;;;;;;;;;;;23.21;53.45;99441.22;1717099;83;20238;-79
2022/06/12 15:55:11;;;;;;;;;;;;;;;23.23;53.09;99436.74;1709120;83;20233;-79
2022/06/12 15:58:16;;;;;;;;;;;;;;;23.26;52.88;99435.36;1689676;85;20229;-79
2022/06/12 16:01:25;;;;;;;;;;;;;;;23.28;52.75;99420.00;1688719;85;20217;-79
2022/06/12 16:04:29;;;;;;;;;;;;;;;23.30;52.32;99422.52;1689530;85;20224;-79
2022/06/12 16:07:34;;;;;;;;;;;;;;;23.34;52.09;99427.82;1689471;85;20688;-79
2022/06/12 16:10:41;;;;;;;;;;;;;;;23.39;51.90;99425.02;1687939;85;20241;-79
2022/06/12 16:13:46;;;;;;;;;;;;;;;23.41;51.68;99411.61;1688203;85;20245;-79
2022/06/12 16:16:51;;;;;;;;;;;;;;;23.42;51.44;99397.92;1689602;85;20222;-79
2022/06/12 16:19:55;;;;;;;;;;;;;;;23.43;51.22;99398.20;1689856;85;20280;-79
2022/06/12 16:23:01;;;;;;;;;;;;;;;23.45;51.05;99386.20;1689398;85;20225;-79
2022/06/12 16:26:07;;;;;;;;;;;;;;;23.48;50.87;99375.89;1688967;85;20485;-79
2022/06/12 16:29:11;;;;;;;;;;;;;;;23.49;50.81;99376.72;1689526;85;20221;-79
2022/06/12 16:32:15;;;;;;;;;;;;;;;23.46;50.73;99366.38;1688286;85;20229;-79
2022/06/12 16:35:20;;;;;;;;;;;;;;;23.47;50.72;99360.23;1689558;85;20214;-79
2022/06/12 16:38:24;;;;;;;;;;;;;;;23.46;50.45;99364.98;1690014;85;20261;-79
2022/06/12 16:41:45;;;;;;;;;;;;;;;23.49;50.24;99376.16;1688279;85;20242;-79
2022/06/12 16:44:30;;;;;;;;;;;;;;;23.51;50.04;99375.86;1687899;85;20241;-79
2022/06/12 16:47:34;;;;;;;;;;;;;;;23.53;49.42;99380.05;1690199;85;20221;-79
2022/06/12 16:50:38;;;;;;;;;;;;;;;23.54;49.41;99377.53;1692879;84;20227;-79